sensor_id;sensor_type;location;lat;lon;timestamp;P1;durP1;ratioP1;P2;durP2;ratioP2
5133;SDS011;2585;48.696;10.066;2022-12-29T00:01:59;2.90;;;1.77;;
5133;SDS011;2585;48.696;10.066;2022-12-29T00:04:26;2.93;;;2.37;;
5133;SDS011;2585;48.696;10.066;2022-12-29T00:06:53;3.40;;;2.17;;
5133;SDS011;2585;48.696;10.066;2022-12-29T00:09:20;2.63;;;2.13;;
5133;SDS011;2585;48.696;10.066;2022-12-29T00:11:47;4.50;;;2.30;;
5133;SDS011;2585;48.696;10.066;2022-12-29T00:14:16;2.73;;;2.07;;
5133;SDS011;2585;48.696;10.066;2022-12-29T00:17:02;4.07;;;2.00;;
5133;SDS011;2585;48.696;10.066;2022-12-29T00:19:29;7.53;;;2.17;;
5133;SDS011;2585;48.696;10.066;2022-12-29T00:22:15;2.97;;;2.13;;
5133;SDS011;2585;48.696;10.066;2022-12-29T00:25:01;3.27;;;2.17;;
5133;SDS011;2585;48.696;10.066;2022-12-29T00:27:46;3.03;;;2.40;;
5133;SDS011;2585;48.696;10.066;2022-12-29T00:30:33;2.20;;;2.00;;
5133;SDS011;2585;48.696;10.066;2022-12-29T00:33:21;4.30;;;2.40;;
5133;SDS011;2585;48.696;10.066;2022-12-29T00:36:11;3.70;;;2.47;;
5133;SDS011;2585;48.696;10.066;2022-12-29T00:38:49;2.90;;;2.43;;
5133;SDS011;2585;48.696;10.066;2022-12-29T00:41:40;3.47;;;2.40;;
5133;SDS011;2585;48.696;10.066;2022-12-29T00:44:25;3.43;;;2.20;;
5133;SDS011;2585;48.696;10.066;2022-12-29T00:46:52;4.03;;;2.70;;
5133;SDS011;2585;48.696;10.066;2022-12-29T00:49:19;3.60;;;2.30;;
5133;SDS011;2585;48.696;10.066;2022-12-29T00:52:03;3.87;;;2.77;;
5133;SDS011;2585;48.696;10.066;2022-12-29T00:54:34;3.27;;;2.30;;
5133;SDS011;2585;48.696;10.066;2022-12-29T00:57:03;5.20;;;2.60;;
5133;SDS011;2585;48.696;10.066;2022-12-29T00:59:31;3.50;;;2.50;;
5133;SDS011;2585;48.696;10.066;2022-12-29T01:01:59;6.10;;;3.20;;
5133;SDS011;2585;48.696;10.066;2022-12-29T01:04:26;5.53;;;3.40;;
5133;SDS011;2585;48.696;10.066;2022-12-29T01:06:53;3.70;;;2.50;;
5133;SDS011;2585;48.696;10.066;2022-12-29T01:09:20;3.73;;;3.13;;
5133;SDS011;2585;48.696;10.066;2022-12-29T01:12:06;6.47;;;2.90;;
5133;SDS011;2585;48.696;10.066;2022-12-29T01:14:34;4.10;;;2.00;;
5133;SDS011;2585;48.696;10.066;2022-12-29T01:17:01;5.73;;;2.43;;
5133;SDS011;2585;48.696;10.066;2022-12-29T01:19:28;2.77;;;2.00;;
5133;SDS011;2585;48.696;10.066;2022-12-29T01:21:55;7.80;;;2.27;;
5133;SDS011;2585;48.696;10.066;2022-12-29T01:24:22;3.20;;;2.00;;
5133;SDS011;2585;48.696;10.066;2022-12-29T01:26:50;3.03;;;2.10;;
5133;SDS011;2585;48.696;10.066;2022-12-29T01:29:17;2.23;;;1.80;;
5133;SDS011;2585;48.696;10.066;2022-12-29T01:31:44;3.27;;;1.70;;
5133;SDS011;2585;48.696;10.066;2022-12-29T01:34:11;1.73;;;1.43;;
5133;SDS011;2585;48.696;10.066;2022-12-29T01:36:38;2.90;;;1.90;;
5133;SDS011;2585;48.696;10.066;2022-12-29T01:39:04;3.30;;;2.20;;
5133;SDS011;2585;48.696;10.066;2022-12-29T01:41:32;1.73;;;1.53;;
5133;SDS011;2585;48.696;10.066;2022-12-29T01:43:59;2.00;;;1.80;;
5133;SDS011;2585;48.696;10.066;2022-12-29T01:46:38;2.13;;;1.60;;
5133;SDS011;2585;48.696;10.066;2022-12-29T01:51:44;1.63;;;1.53;;
5133;SDS011;2585;48.696;10.066;2022-12-29T01:54:16;3.90;;;1.70;;
5133;SDS011;2585;48.696;10.066;2022-12-29T01:56:54;2.73;;;1.80;;
5133;SDS011;2585;48.696;10.066;2022-12-29T01:59:24;1.53;;;1.40;;
5133;SDS011;2585;48.696;10.066;2022-12-29T02:01:55;2.50;;;1.80;;
5133;SDS011;2585;48.696;10.066;2022-12-29T02:04:23;2.07;;;1.87;;
5133;SDS011;2585;48.696;10.066;2022-12-29T02:06:57;3.60;;;1.60;;
5133;SDS011;2585;48.696;10.066;2022-12-29T02:09:29;2.77;;;1.70;;
5133;SDS011;2585;48.696;10.066;2022-12-29T02:11:56;1.87;;;1.40;;
5133;SDS011;2585;48.696;10.066;2022-12-29T02:14:24;2.50;;;1.70;;
5133;SDS011;2585;48.696;10.066;2022-12-29T02:20:05;4.00;;;2.27;;
5133;SDS011;2585;48.696;10.066;2022-12-29T02:25:38;1.93;;;1.67;;
5133;SDS011;2585;48.696;10.066;2022-12-29T02:31:34;5.00;;;1.53;;
5133;SDS011;2585;48.696;10.066;2022-12-29T02:36:42;3.50;;;1.70;;
5133;SDS011;2585;48.696;10.066;2022-12-29T02:39:22;3.70;;;1.70;;
5133;SDS011;2585;48.696;10.066;2022-12-29T02:44:38;2.97;;;1.93;;
5133;SDS011;2585;48.696;10.066;2022-12-29T02:47:18;3.03;;;1.63;;
5133;SDS011;2585;48.696;10.066;2022-12-29T02:49:58;4.73;;;1.70;;
5133;SDS011;2585;48.696;10.066;2022-12-29T02:53:18;3.50;;;1.80;;
5133;SDS011;2585;48.696;10.066;2022-12-29T02:55:27;1.90;;;1.60;;
5133;SDS011;2585;48.696;10.066;2022-12-29T03:03:55;2.43;;;1.60;;
5133;SDS011;2585;48.696;10.066;2022-12-29T03:11:27;2.43;;;1.50;;
5133;SDS011;2585;48.696;10.066;2022-12-29T03:14:26;3.73;;;1.60;;
5133;SDS011;2585;48.696;10.066;2022-12-29T03:18:05;3.63;;;1.70;;
5133;SDS011;2585;48.696;10.066;2022-12-29T03:20:05;2.47;;;1.70;;
5133;SDS011;2585;48.696;10.066;2022-12-29T03:22:36;2.10;;;1.37;;
5133;SDS011;2585;48.696;10.066;2022-12-29T03:27:50;2.30;;;1.63;;
5133;SDS011;2585;48.696;10.066;2022-12-29T03:30:21;4.50;;;1.80;;
5133;SDS011;2585;48.696;10.066;2022-12-29T03:32:50;4.33;;;1.50;;
5133;SDS011;2585;48.696;10.066;2022-12-29T03:35:21;1.87;;;1.40;;
5133;SDS011;2585;48.696;10.066;2022-12-29T03:40:32;2.90;;;1.53;;
5133;SDS011;2585;48.696;10.066;2022-12-29T03:43:01;2.90;;;2.00;;
5133;SDS011;2585;48.696;10.066;2022-12-29T03:45:29;2.63;;;1.70;;
5133;SDS011;2585;48.696;10.066;2022-12-29T03:47:56;2.80;;;1.83;;
5133;SDS011;2585;48.696;10.066;2022-12-29T03:50:22;4.20;;;1.70;;
5133;SDS011;2585;48.696;10.066;2022-12-29T03:52:49;1.70;;;1.50;;
5133;SDS011;2585;48.696;10.066;2022-12-29T03:55:16;4.93;;;1.67;;
5133;SDS011;2585;48.696;10.066;2022-12-29T03:57:43;2.00;;;1.40;;
5133;SDS011;2585;48.696;10.066;2022-12-29T04:00:10;2.13;;;1.80;;
5133;SDS011;2585;48.696;10.066;2022-12-29T04:02:38;4.97;;;1.90;;
5133;SDS011;2585;48.696;10.066;2022-12-29T04:05:05;9.60;;;1.90;;
5133;SDS011;2585;48.696;10.066;2022-12-29T04:07:32;4.07;;;1.70;;
5133;SDS011;2585;48.696;10.066;2022-12-29T04:09:59;4.47;;;1.40;;
5133;SDS011;2585;48.696;10.066;2022-12-29T04:12:26;3.30;;;1.70;;
5133;SDS011;2585;48.696;10.066;2022-12-29T04:14:53;1.77;;;1.53;;
5133;SDS011;2585;48.696;10.066;2022-12-29T04:17:20;3.60;;;1.40;;
5133;SDS011;2585;48.696;10.066;2022-12-29T04:19:46;1.43;;;1.20;;
5133;SDS011;2585;48.696;10.066;2022-12-29T04:22:13;1.80;;;1.70;;
5133;SDS011;2585;48.696;10.066;2022-12-29T04:24:40;2.07;;;1.60;;
5133;SDS011;2585;48.696;10.066;2022-12-29T04:27:07;4.50;;;1.90;;
5133;SDS011;2585;48.696;10.066;2022-12-29T04:29:33;5.47;;;1.83;;
5133;SDS011;2585;48.696;10.066;2022-12-29T04:32:00;3.17;;;1.73;;
5133;SDS011;2585;48.696;10.066;2022-12-29T04:34:27;2.20;;;1.60;;
5133;SDS011;2585;48.696;10.066;2022-12-29T04:36:54;4.23;;;1.80;;
5133;SDS011;2585;48.696;10.066;2022-12-29T04:39:20;4.17;;;1.97;;
5133;SDS011;2585;48.696;10.066;2022-12-29T04:41:47;6.53;;;2.10;;
5133;SDS011;2585;48.696;10.066;2022-12-29T04:44:14;3.53;;;2.37;;
5133;SDS011;2585;48.696;10.066;2022-12-29T04:46:43;2.50;;;2.10;;
5133;SDS011;2585;48.696;10.066;2022-12-29T04:49:10;4.17;;;1.90;;
5133;SDS011;2585;48.696;10.066;2022-12-29T04:51:36;3.97;;;2.00;;
5133;SDS011;2585;48.696;10.066;2022-12-29T04:54:03;3.17;;;1.63;;
5133;SDS011;2585;48.696;10.066;2022-12-29T04:56:30;4.07;;;2.40;;
5133;SDS011;2585;48.696;10.066;2022-12-29T04:58:57;10.20;;;1.90;;
5133;SDS011;2585;48.696;10.066;2022-12-29T05:01:24;3.60;;;2.30;;
5133;SDS011;2585;48.696;10.066;2022-12-29T05:03:51;2.20;;;1.70;;
5133;SDS011;2585;48.696;10.066;2022-12-29T05:06:18;3.80;;;2.10;;
5133;SDS011;2585;48.696;10.066;2022-12-29T05:08:45;2.67;;;2.47;;
5133;SDS011;2585;48.696;10.066;2022-12-29T05:11:12;3.47;;;1.90;;
5133;SDS011;2585;48.696;10.066;2022-12-29T05:13:38;2.27;;;2.07;;
5133;SDS011;2585;48.696;10.066;2022-12-29T05:16:05;4.10;;;1.57;;
5133;SDS011;2585;48.696;10.066;2022-12-29T05:18:32;2.73;;;1.70;;
5133;SDS011;2585;48.696;10.066;2022-12-29T05:20:59;2.00;;;1.80;;
5133;SDS011;2585;48.696;10.066;2022-12-29T05:23:26;2.93;;;2.03;;
5133;SDS011;2585;48.696;10.066;2022-12-29T05:25:53;3.70;;;1.73;;
5133;SDS011;2585;48.696;10.066;2022-12-29T05:28:20;4.17;;;2.07;;
5133;SDS011;2585;48.696;10.066;2022-12-29T05:30:50;4.30;;;1.53;;
5133;SDS011;2585;48.696;10.066;2022-12-29T05:33:17;2.67;;;1.83;;
5133;SDS011;2585;48.696;10.066;2022-12-29T05:35:45;3.23;;;1.57;;
5133;SDS011;2585;48.696;10.066;2022-12-29T05:38:12;2.83;;;1.80;;
5133;SDS011;2585;48.696;10.066;2022-12-29T05:40:38;1.85;;;1.70;;
5133;SDS011;2585;48.696;10.066;2022-12-29T05:43:05;12.50;;;2.80;;
5133;SDS011;2585;48.696;10.066;2022-12-29T05:45:32;5.38;;;3.28;;
5133;SDS011;2585;48.696;10.066;2022-12-29T05:47:59;8.13;;;3.70;;
5133;SDS011;2585;48.696;10.066;2022-12-29T05:50:26;5.85;;;3.20;;
5133;SDS011;2585;48.696;10.066;2022-12-29T05:52:53;4.75;;;3.05;;
5133;SDS011;2585;48.696;10.066;2022-12-29T05:55:20;4.90;;;2.90;;
5133;SDS011;2585;48.696;10.066;2022-12-29T05:57:46;12.30;;;3.42;;
5133;SDS011;2585;48.696;10.066;2022-12-29T06:00:13;2.60;;;1.83;;
5133;SDS011;2585;48.696;10.066;2022-12-29T06:02:41;10.65;;;2.80;;
5133;SDS011;2585;48.696;10.066;2022-12-29T06:05:08;3.70;;;2.33;;
5133;SDS011;2585;48.696;10.066;2022-12-29T06:07:35;3.50;;;2.20;;
5133;SDS011;2585;48.696;10.066;2022-12-29T06:10:03;7.27;;;2.40;;
5133;SDS011;2585;48.696;10.066;2022-12-29T06:12:31;3.30;;;2.10;;
5133;SDS011;2585;48.696;10.066;2022-12-29T06:14:57;3.65;;;2.05;;
5133;SDS011;2585;48.696;10.066;2022-12-29T06:17:24;3.30;;;2.37;;
5133;SDS011;2585;48.696;10.066;2022-12-29T06:19:51;3.63;;;2.30;;
5133;SDS011;2585;48.696;10.066;2022-12-29T06:22:18;3.17;;;1.80;;
5133;SDS011;2585;48.696;10.066;2022-12-29T06:24:44;3.30;;;2.17;;
5133;SDS011;2585;48.696;10.066;2022-12-29T06:27:11;2.22;;;2.03;;
5133;SDS011;2585;48.696;10.066;2022-12-29T06:29:42;2.47;;;1.80;;
5133;SDS011;2585;48.696;10.066;2022-12-29T06:32:09;3.73;;;2.10;;
5133;SDS011;2585;48.696;10.066;2022-12-29T06:34:36;2.83;;;2.33;;
5133;SDS011;2585;48.696;10.066;2022-12-29T06:37:03;3.97;;;1.77;;
5133;SDS011;2585;48.696;10.066;2022-12-29T06:39:30;2.47;;;1.50;;
5133;SDS011;2585;48.696;10.066;2022-12-29T06:41:56;4.00;;;2.43;;
5133;SDS011;2585;48.696;10.066;2022-12-29T06:44:23;7.80;;;1.97;;
5133;SDS011;2585;48.696;10.066;2022-12-29T06:46:50;2.90;;;1.63;;
5133;SDS011;2585;48.696;10.066;2022-12-29T06:49:17;3.63;;;2.17;;
5133;SDS011;2585;48.696;10.066;2022-12-29T06:51:44;2.50;;;1.93;;
5133;SDS011;2585;48.696;10.066;2022-12-29T06:54:10;6.20;;;2.33;;
5133;SDS011;2585;48.696;10.066;2022-12-29T06:56:37;6.97;;;2.60;;
5133;SDS011;2585;48.696;10.066;2022-12-29T06:59:04;3.83;;;2.27;;
5133;SDS011;2585;48.696;10.066;2022-12-29T07:01:31;3.37;;;2.53;;
5133;SDS011;2585;48.696;10.066;2022-12-29T07:03:58;2.97;;;2.30;;
5133;SDS011;2585;48.696;10.066;2022-12-29T07:06:25;5.70;;;2.50;;
5133;SDS011;2585;48.696;10.066;2022-12-29T07:08:52;8.70;;;2.27;;
5133;SDS011;2585;48.696;10.066;2022-12-29T07:11:21;6.43;;;2.63;;
5133;SDS011;2585;48.696;10.066;2022-12-29T07:13:49;3.70;;;2.40;;
5133;SDS011;2585;48.696;10.066;2022-12-29T07:16:16;3.47;;;2.60;;
5133;SDS011;2585;48.696;10.066;2022-12-29T07:18:43;5.03;;;3.40;;
5133;SDS011;2585;48.696;10.066;2022-12-29T07:21:10;7.83;;;2.87;;
5133;SDS011;2585;48.696;10.066;2022-12-29T07:23:37;3.37;;;2.63;;
5133;SDS011;2585;48.696;10.066;2022-12-29T07:26:05;6.07;;;3.07;;
5133;SDS011;2585;48.696;10.066;2022-12-29T07:28:34;3.90;;;2.47;;
5133;SDS011;2585;48.696;10.066;2022-12-29T07:31:01;3.10;;;2.38;;
5133;SDS011;2585;48.696;10.066;2022-12-29T07:33:28;4.13;;;2.67;;
5133;SDS011;2585;48.696;10.066;2022-12-29T07:35:56;6.82;;;3.55;;
5133;SDS011;2585;48.696;10.066;2022-12-29T07:38:22;5.03;;;3.25;;
5133;SDS011;2585;48.696;10.066;2022-12-29T07:40:50;5.47;;;3.72;;
5133;SDS011;2585;48.696;10.066;2022-12-29T07:43:16;7.23;;;3.73;;
5133;SDS011;2585;48.696;10.066;2022-12-29T07:45:45;8.80;;;4.53;;
5133;SDS011;2585;48.696;10.066;2022-12-29T07:48:12;6.80;;;4.20;;
5133;SDS011;2585;48.696;10.066;2022-12-29T07:50:39;7.03;;;4.47;;
5133;SDS011;2585;48.696;10.066;2022-12-29T07:53:05;6.00;;;3.80;;
5133;SDS011;2585;48.696;10.066;2022-12-29T07:55:32;9.70;;;3.60;;
5133;SDS011;2585;48.696;10.066;2022-12-29T07:57:59;9.40;;;3.60;;
5133;SDS011;2585;48.696;10.066;2022-12-29T08:00:26;7.60;;;4.20;;
5133;SDS011;2585;48.696;10.066;2022-12-29T08:02:53;6.60;;;3.97;;
5133;SDS011;2585;48.696;10.066;2022-12-29T08:05:19;7.30;;;3.15;;
5133;SDS011;2585;48.696;10.066;2022-12-29T08:07:46;3.78;;;2.50;;
5133;SDS011;2585;48.696;10.066;2022-12-29T08:10:14;6.87;;;2.10;;
5133;SDS011;2585;48.696;10.066;2022-12-29T08:12:41;3.10;;;2.47;;
5133;SDS011;2585;48.696;10.066;2022-12-29T08:15:10;3.40;;;2.10;;
5133;SDS011;2585;48.696;10.066;2022-12-29T08:17:37;7.20;;;2.80;;
5133;SDS011;2585;48.696;10.066;2022-12-29T08:20:04;3.57;;;2.73;;
5133;SDS011;2585;48.696;10.066;2022-12-29T08:22:32;3.13;;;2.37;;
5133;SDS011;2585;48.696;10.066;2022-12-29T08:24:59;4.57;;;2.20;;
5133;SDS011;2585;48.696;10.066;2022-12-29T08:27:26;4.00;;;2.43;;
5133;SDS011;2585;48.696;10.066;2022-12-29T08:29:53;4.17;;;2.47;;
5133;SDS011;2585;48.696;10.066;2022-12-29T08:32:19;4.70;;;2.50;;
5133;SDS011;2585;48.696;10.066;2022-12-29T08:34:46;4.67;;;2.73;;
5133;SDS011;2585;48.696;10.066;2022-12-29T08:37:13;4.73;;;2.30;;
5133;SDS011;2585;48.696;10.066;2022-12-29T08:39:40;5.90;;;2.93;;
5133;SDS011;2585;48.696;10.066;2022-12-29T08:42:07;4.30;;;2.83;;
5133;SDS011;2585;48.696;10.066;2022-12-29T08:44:33;4.87;;;2.90;;
5133;SDS011;2585;48.696;10.066;2022-12-29T08:47:00;3.80;;;2.70;;
5133;SDS011;2585;48.696;10.066;2022-12-29T08:49:27;5.73;;;2.70;;
5133;SDS011;2585;48.696;10.066;2022-12-29T08:51:54;3.90;;;2.17;;
5133;SDS011;2585;48.696;10.066;2022-12-29T08:54:23;9.00;;;2.60;;
5133;SDS011;2585;48.696;10.066;2022-12-29T08:56:50;3.27;;;2.53;;
5133;SDS011;2585;48.696;10.066;2022-12-29T08:59:16;4.27;;;2.50;;
5133;SDS011;2585;48.696;10.066;2022-12-29T09:01:43;4.13;;;2.77;;
5133;SDS011;2585;48.696;10.066;2022-12-29T09:04:10;3.73;;;2.23;;
5133;SDS011;2585;48.696;10.066;2022-12-29T09:06:41;4.20;;;2.63;;
5133;SDS011;2585;48.696;10.066;2022-12-29T09:09:08;5.83;;;2.93;;
5133;SDS011;2585;48.696;10.066;2022-12-29T09:11:35;3.70;;;2.70;;
5133;SDS011;2585;48.696;10.066;2022-12-29T09:14:02;3.80;;;2.70;;
5133;SDS011;2585;48.696;10.066;2022-12-29T09:16:29;5.53;;;3.20;;
5133;SDS011;2585;48.696;10.066;2022-12-29T09:18:56;3.57;;;2.47;;
5133;SDS011;2585;48.696;10.066;2022-12-29T09:21:23;6.07;;;3.03;;
5133;SDS011;2585;48.696;10.066;2022-12-29T09:23:50;5.77;;;2.40;;
5133;SDS011;2585;48.696;10.066;2022-12-29T09:26:17;4.30;;;2.47;;
5133;SDS011;2585;48.696;10.066;2022-12-29T09:28:44;11.30;;;3.57;;
5133;SDS011;2585;48.696;10.066;2022-12-29T09:31:11;6.83;;;3.17;;
5133;SDS011;2585;48.696;10.066;2022-12-29T09:33:38;3.03;;;2.30;;
5133;SDS011;2585;48.696;10.066;2022-12-29T09:36:05;2.67;;;2.33;;
5133;SDS011;2585;48.696;10.066;2022-12-29T09:38:33;8.43;;;3.17;;
5133;SDS011;2585;48.696;10.066;2022-12-29T09:44:19;7.60;;;2.83;;
5133;SDS011;2585;48.696;10.066;2022-12-29T09:47:03;5.93;;;2.43;;
5133;SDS011;2585;48.696;10.066;2022-12-29T09:49:45;3.23;;;2.17;;
5133;SDS011;2585;48.696;10.066;2022-12-29T09:52:18;2.70;;;2.50;;
5133;SDS011;2585;48.696;10.066;2022-12-29T09:57:37;2.87;;;2.57;;
5133;SDS011;2585;48.696;10.066;2022-12-29T10:02:51;6.20;;;2.53;;
5133;SDS011;2585;48.696;10.066;2022-12-29T10:11:39;5.00;;;2.80;;
5133;SDS011;2585;48.696;10.066;2022-12-29T10:25:22;6.70;;;2.30;;
5133;SDS011;2585;48.696;10.066;2022-12-29T10:27:58;5.13;;;2.87;;
5133;SDS011;2585;48.696;10.066;2022-12-29T10:30:29;3.70;;;2.53;;
5133;SDS011;2585;48.696;10.066;2022-12-29T10:32:59;9.30;;;2.63;;
5133;SDS011;2585;48.696;10.066;2022-12-29T10:35:35;3.33;;;2.13;;
5133;SDS011;2585;48.696;10.066;2022-12-29T10:40:58;5.07;;;3.00;;
5133;SDS011;2585;48.696;10.066;2022-12-29T10:43:43;3.50;;;2.30;;
5133;SDS011;2585;48.696;10.066;2022-12-29T10:46:13;7.67;;;3.03;;
5133;SDS011;2585;48.696;10.066;2022-12-29T10:49:01;10.60;;;3.20;;
5133;SDS011;2585;48.696;10.066;2022-12-29T10:51:30;3.73;;;2.50;;
5133;SDS011;2585;48.696;10.066;2022-12-29T10:54:05;9.30;;;2.90;;
5133;SDS011;2585;48.696;10.066;2022-12-29T10:57:25;3.23;;;2.50;;
5133;SDS011;2585;48.696;10.066;2022-12-29T10:59:36;6.27;;;3.13;;
5133;SDS011;2585;48.696;10.066;2022-12-29T11:07:28;3.93;;;2.77;;
5133;SDS011;2585;48.696;10.066;2022-12-29T11:10:15;3.70;;;2.33;;
5133;SDS011;2585;48.696;10.066;2022-12-29T11:12:54;4.70;;;2.47;;
5133;SDS011;2585;48.696;10.066;2022-12-29T11:15:39;4.03;;;2.33;;
5133;SDS011;2585;48.696;10.066;2022-12-29T11:18:53;2.93;;;2.03;;
5133;SDS011;2585;48.696;10.066;2022-12-29T11:21:07;4.40;;;2.43;;
5133;SDS011;2585;48.696;10.066;2022-12-29T11:24:02;8.10;;;2.53;;
5133;SDS011;2585;48.696;10.066;2022-12-29T11:26:31;3.60;;;2.30;;
5133;SDS011;2585;48.696;10.066;2022-12-29T11:29:43;5.13;;;2.43;;
5133;SDS011;2585;48.696;10.066;2022-12-29T11:31:55;6.03;;;2.97;;
5133;SDS011;2585;48.696;10.066;2022-12-29T11:34:32;5.73;;;2.17;;
5133;SDS011;2585;48.696;10.066;2022-12-29T11:39:53;5.50;;;2.77;;
5133;SDS011;2585;48.696;10.066;2022-12-29T11:42:32;3.40;;;2.97;;
5133;SDS011;2585;48.696;10.066;2022-12-29T11:45:03;5.17;;;2.47;;
5133;SDS011;2585;48.696;10.066;2022-12-29T11:47:36;7.13;;;4.43;;
5133;SDS011;2585;48.696;10.066;2022-12-29T11:50:04;6.60;;;3.40;;
5133;SDS011;2585;48.696;10.066;2022-12-29T11:52:34;5.40;;;3.00;;
5133;SDS011;2585;48.696;10.066;2022-12-29T11:55:04;8.30;;;2.13;;
5133;SDS011;2585;48.696;10.066;2022-12-29T11:57:33;10.33;;;2.20;;
5133;SDS011;2585;48.696;10.066;2022-12-29T12:00:03;4.03;;;2.30;;
5133;SDS011;2585;48.696;10.066;2022-12-29T12:05:26;7.00;;;2.60;;
5133;SDS011;2585;48.696;10.066;2022-12-29T12:14:00;4.70;;;2.93;;
5133;SDS011;2585;48.696;10.066;2022-12-29T12:16:47;5.33;;;2.57;;
5133;SDS011;2585;48.696;10.066;2022-12-29T12:19:43;4.13;;;2.40;;
5133;SDS011;2585;48.696;10.066;2022-12-29T12:22:19;3.43;;;2.63;;
5133;SDS011;2585;48.696;10.066;2022-12-29T12:25:10;3.90;;;2.77;;
5133;SDS011;2585;48.696;10.066;2022-12-29T12:27:46;5.43;;;2.77;;
5133;SDS011;2585;48.696;10.066;2022-12-29T12:30:20;4.67;;;2.97;;
5133;SDS011;2585;48.696;10.066;2022-12-29T12:35:41;3.23;;;2.67;;
5133;SDS011;2585;48.696;10.066;2022-12-29T12:41:16;4.07;;;2.80;;
5133;SDS011;2585;48.696;10.066;2022-12-29T12:50:02;7.67;;;2.40;;
5133;SDS011;2585;48.696;10.066;2022-12-29T12:57:59;4.97;;;2.93;;
5133;SDS011;2585;48.696;10.066;2022-12-29T13:03:44;4.90;;;2.67;;
5133;SDS011;2585;48.696;10.066;2022-12-29T13:12:04;5.20;;;3.70;;
5133;SDS011;2585;48.696;10.066;2022-12-29T13:20:25;5.37;;;3.10;;
5133;SDS011;2585;48.696;10.066;2022-12-29T13:26:08;3.83;;;2.70;;
5133;SDS011;2585;48.696;10.066;2022-12-29T13:29:00;3.60;;;2.53;;
5133;SDS011;2585;48.696;10.066;2022-12-29T13:37:25;8.00;;;3.13;;
5133;SDS011;2585;48.696;10.066;2022-12-29T13:39:57;7.33;;;3.17;;
5133;SDS011;2585;48.696;10.066;2022-12-29T13:42:27;2.80;;;2.50;;
5133;SDS011;2585;48.696;10.066;2022-12-29T13:44:57;6.97;;;3.47;;
5133;SDS011;2585;48.696;10.066;2022-12-29T13:47:36;10.10;;;4.50;;
5133;SDS011;2585;48.696;10.066;2022-12-29T13:50:15;6.90;;;3.33;;
5133;SDS011;2585;48.696;10.066;2022-12-29T13:58:17;9.47;;;4.43;;
5133;SDS011;2585;48.696;10.066;2022-12-29T14:01:30;8.07;;;5.10;;
5133;SDS011;2585;48.696;10.066;2022-12-29T14:04:11;10.97;;;5.63;;
5133;SDS011;2585;48.696;10.066;2022-12-29T14:06:40;12.00;;;5.43;;
5133;SDS011;2585;48.696;10.066;2022-12-29T14:12:00;7.70;;;4.10;;
5133;SDS011;2585;48.696;10.066;2022-12-29T14:14:41;5.50;;;3.73;;
5133;SDS011;2585;48.696;10.066;2022-12-29T14:17:08;9.30;;;4.53;;
5133;SDS011;2585;48.696;10.066;2022-12-29T14:19:41;4.87;;;2.83;;
5133;SDS011;2585;48.696;10.066;2022-12-29T14:22:10;7.10;;;3.40;;
5133;SDS011;2585;48.696;10.066;2022-12-29T14:24:39;5.13;;;3.10;;
5133;SDS011;2585;48.696;10.066;2022-12-29T14:34:54;4.17;;;2.60;;
5133;SDS011;2585;48.696;10.066;2022-12-29T14:37:26;5.17;;;3.50;;
5133;SDS011;2585;48.696;10.066;2022-12-29T14:42:47;7.60;;;4.23;;
5133;SDS011;2585;48.696;10.066;2022-12-29T14:52:53;7.53;;;4.40;;
5133;SDS011;2585;48.696;10.066;2022-12-29T14:55:39;4.03;;;3.30;;
5133;SDS011;2585;48.696;10.066;2022-12-29T15:00:47;5.93;;;4.10;;
5133;SDS011;2585;48.696;10.066;2022-12-29T15:05:51;5.13;;;3.17;;
5133;SDS011;2585;48.696;10.066;2022-12-29T15:08:28;4.00;;;2.90;;
5133;SDS011;2585;48.696;10.066;2022-12-29T15:11:00;5.70;;;2.83;;
5133;SDS011;2585;48.696;10.066;2022-12-29T15:13:37;3.40;;;2.40;;
5133;SDS011;2585;48.696;10.066;2022-12-29T15:18:57;3.00;;;2.17;;
5133;SDS011;2585;48.696;10.066;2022-12-29T15:21:42;6.37;;;2.70;;
5133;SDS011;2585;48.696;10.066;2022-12-29T15:24:10;6.53;;;2.90;;
5133;SDS011;2585;48.696;10.066;2022-12-29T15:26:39;3.10;;;2.20;;
5133;SDS011;2585;48.696;10.066;2022-12-29T15:34:51;6.83;;;3.50;;
5133;SDS011;2585;48.696;10.066;2022-12-29T15:37:33;4.30;;;2.97;;
5133;SDS011;2585;48.696;10.066;2022-12-29T15:40:02;5.60;;;2.97;;
5133;SDS011;2585;48.696;10.066;2022-12-29T15:45:11;4.13;;;2.80;;
5133;SDS011;2585;48.696;10.066;2022-12-29T15:47:39;3.80;;;2.80;;
5133;SDS011;2585;48.696;10.066;2022-12-29T15:52:48;7.70;;;3.40;;
5133;SDS011;2585;48.696;10.066;2022-12-29T15:55:34;5.43;;;3.57;;
5133;SDS011;2585;48.696;10.066;2022-12-29T15:58:04;6.77;;;4.10;;
5133;SDS011;2585;48.696;10.066;2022-12-29T16:00:32;7.00;;;4.80;;
5133;SDS011;2585;48.696;10.066;2022-12-29T16:03:03;9.43;;;4.50;;
5133;SDS011;2585;48.696;10.066;2022-12-29T16:05:35;6.37;;;4.10;;
5133;SDS011;2585;48.696;10.066;2022-12-29T16:08:24;6.90;;;4.57;;
5133;SDS011;2585;48.696;10.066;2022-12-29T16:10:54;6.80;;;5.33;;
5133;SDS011;2585;48.696;10.066;2022-12-29T16:13:26;7.27;;;4.87;;
5133;SDS011;2585;48.696;10.066;2022-12-29T16:15:56;6.07;;;4.67;;
5133;SDS011;2585;48.696;10.066;2022-12-29T16:18:29;5.40;;;3.10;;
5133;SDS011;2585;48.696;10.066;2022-12-29T16:21:01;3.57;;;3.00;;
5133;SDS011;2585;48.696;10.066;2022-12-29T16:23:30;5.40;;;4.07;;
5133;SDS011;2585;48.696;10.066;2022-12-29T16:25:58;8.33;;;5.67;;
5133;SDS011;2585;48.696;10.066;2022-12-29T16:28:41;12.77;;;7.73;;
5133;SDS011;2585;48.696;10.066;2022-12-29T16:34:22;17.60;;;10.90;;
5133;SDS011;2585;48.696;10.066;2022-12-29T16:36:56;16.50;;;8.57;;
5133;SDS011;2585;48.696;10.066;2022-12-29T16:39:25;10.07;;;6.20;;
5133;SDS011;2585;48.696;10.066;2022-12-29T16:41:53;7.07;;;4.50;;
5133;SDS011;2585;48.696;10.066;2022-12-29T16:44:25;6.63;;;4.47;;
5133;SDS011;2585;48.696;10.066;2022-12-29T16:49:37;5.33;;;3.43;;
5133;SDS011;2585;48.696;10.066;2022-12-29T16:52:19;5.47;;;4.03;;
5133;SDS011;2585;48.696;10.066;2022-12-29T16:54:50;7.57;;;3.90;;
5133;SDS011;2585;48.696;10.066;2022-12-29T16:57:31;10.73;;;5.93;;
5133;SDS011;2585;48.696;10.066;2022-12-29T17:00:06;7.30;;;4.10;;
5133;SDS011;2585;48.696;10.066;2022-12-29T17:02:43;7.47;;;4.63;;
5133;SDS011;2585;48.696;10.066;2022-12-29T17:05:12;6.60;;;4.60;;
5133;SDS011;2585;48.696;10.066;2022-12-29T17:07:40;7.23;;;3.67;;
5133;SDS011;2585;48.696;10.066;2022-12-29T17:10:07;5.87;;;3.73;;
5133;SDS011;2585;48.696;10.066;2022-12-29T17:12:38;7.20;;;4.40;;
5133;SDS011;2585;48.696;10.066;2022-12-29T17:15:27;5.80;;;3.93;;
5133;SDS011;2585;48.696;10.066;2022-12-29T17:18:00;10.60;;;5.33;;
5133;SDS011;2585;48.696;10.066;2022-12-29T17:20:28;10.80;;;6.80;;
5133;SDS011;2585;48.696;10.066;2022-12-29T17:22:57;12.83;;;7.90;;
5133;SDS011;2585;48.696;10.066;2022-12-29T17:28:00;25.47;;;13.70;;
5133;SDS011;2585;48.696;10.066;2022-12-29T17:30:55;23.80;;;14.80;;
5133;SDS011;2585;48.696;10.066;2022-12-29T17:33:25;22.67;;;13.60;;
5133;SDS011;2585;48.696;10.066;2022-12-29T17:35:53;23.90;;;12.80;;
5133;SDS011;2585;48.696;10.066;2022-12-29T17:38:28;25.33;;;13.57;;
5133;SDS011;2585;48.696;10.066;2022-12-29T17:40:56;24.03;;;14.40;;
5133;SDS011;2585;48.696;10.066;2022-12-29T17:43:24;25.60;;;16.50;;
5133;SDS011;2585;48.696;10.066;2022-12-29T17:45:59;23.30;;;14.40;;
5133;SDS011;2585;48.696;10.066;2022-12-29T17:48:26;36.70;;;19.00;;
5133;SDS011;2585;48.696;10.066;2022-12-29T17:50:53;34.70;;;19.30;;
5133;SDS011;2585;48.696;10.066;2022-12-29T17:53:24;34.80;;;20.00;;
5133;SDS011;2585;48.696;10.066;2022-12-29T17:55:53;39.27;;;21.60;;
5133;SDS011;2585;48.696;10.066;2022-12-29T17:58:21;30.53;;;17.83;;
5133;SDS011;2585;48.696;10.066;2022-12-29T18:00:50;29.70;;;17.70;;
5133;SDS011;2585;48.696;10.066;2022-12-29T18:03:20;41.60;;;23.13;;
5133;SDS011;2585;48.696;10.066;2022-12-29T18:06:06;41.47;;;22.37;;
5133;SDS011;2585;48.696;10.066;2022-12-29T18:08:36;41.73;;;23.63;;
5133;SDS011;2585;48.696;10.066;2022-12-29T18:11:05;43.30;;;25.00;;
5133;SDS011;2585;48.696;10.066;2022-12-29T18:13:47;44.77;;;23.50;;
5133;SDS011;2585;48.696;10.066;2022-12-29T18:16:14;38.53;;;19.97;;
5133;SDS011;2585;48.696;10.066;2022-12-29T18:18:41;37.03;;;21.40;;